N501HV KTOA-KTOA

Flight info

Callsign N501HV
Flight time 0h 9m
Altitude 1500
Route VFR
Aircraft B06/L-SDGRY/SB2

Departure

Time 2026-04-18 19:05
Airport Zamperini Field (KTOA)

Arrival

Time 2026-04-18 19:14
Airport Zamperini Field (KTOA)
Time Latitude Longitude Altitude Speed Heading
2026-04-18 19:02 33.80302 -118.34356 108 ft 0 kts 37°
2026-04-18 19:04 33.80303 -118.34354 116 ft 3 kts 46°
2026-04-18 19:04 33.80482 -118.34350 237 ft 39 kts 338°
2026-04-18 19:04 33.80739 -118.34476 473 ft 48 kts 322°
2026-04-18 19:04 33.80998 -118.34889 611 ft 72 kts 284°
2026-04-18 19:05 33.80994 -118.35572 631 ft 90 kts 255°
2026-04-18 19:05 33.79756 -118.35742 684 ft 108 kts 166°
2026-04-18 19:05 33.79022 -118.35387 820 ft 119 kts 156°
2026-04-18 19:06 33.78329 -118.34831 1007 ft 121 kts 142°
2026-04-18 19:06 33.77284 -118.33441 1352 ft 121 kts 130°
2026-04-18 19:06 33.76763 -118.32615 1341 ft 125 kts 125°
2026-04-18 19:07 33.76277 -118.31751 1292 ft 134 kts 121°
2026-04-18 19:07 33.75795 -118.30796 1314 ft 129 kts 118°
2026-04-18 19:07 33.75388 -118.29821 1265 ft 134 kts 120°
2026-04-18 19:07 33.74999 -118.28790 1034 ft 136 kts 111°
2026-04-18 19:08 33.74858 -118.27744 831 ft 135 kts 84°
2026-04-18 19:08 33.75104 -118.26632 748 ft 133 kts 72°
2026-04-18 19:08 33.75556 -118.25669 580 ft 134 kts 47°
2026-04-18 19:08 33.76202 -118.24898 570 ft 127 kts 42°
2026-04-18 19:09 33.76726 -118.24034 540 ft 129 kts 69°
2026-04-18 19:09 33.76907 -118.22980 530 ft 130 kts 96°
2026-04-18 19:09 33.76743 -118.21949 520 ft 124 kts 117°
2026-04-18 19:09 33.76409 -118.20978 523 ft 128 kts 126°
2026-04-18 19:10 33.75975 -118.20044 514 ft 126 kts 127°
2026-04-18 19:10 33.75632 -118.19103 513 ft 122 kts 112°
2026-04-18 19:10 33.75765 -118.18145 726 ft 113 kts 58°
2026-04-18 19:10 33.76470 -118.17887 822 ft 117 kts 333°
2026-04-18 19:11 33.76775 -118.18682 898 ft 116 kts 256°
2026-04-18 19:11 33.76746 -118.19573 663 ft 109 kts 288°
2026-04-18 19:11 33.76754 -118.20448 511 ft 93 kts 226°
2026-04-18 19:11 33.76218 -118.20493 650 ft 97 kts 151°
2026-04-18 19:12 33.75680 -118.19953 593 ft 102 kts 149°
2026-04-18 19:12 33.75204 -118.19330 670 ft 107 kts 114°
2026-04-18 19:12 33.75118 -118.18620 757 ft 100 kts 57°
2026-04-18 19:12 33.75506 -118.17851 673 ft 109 kts 38°
2026-04-18 19:13 33.76135 -118.17414 639 ft 98 kts 326°
2026-04-18 19:13 33.76580 -118.17988 589 ft 83 kts 262°
2026-04-18 19:14 33.76482 -118.18287 865 ft 32 kts 165°
2026-04-18 19:15 33.76387 -118.18075 967 ft 41 kts
2026-04-18 19:15 33.76516 -118.18440 858 ft 59 kts 265°
2026-04-18 19:15 33.76368 -118.18497 564 ft 63 kts 112°
2026-04-18 19:17 33.76420 -118.18258 605 ft 61 kts 75°
2026-04-18 19:17 33.76321 -118.17811 603 ft 68 kts 123°
2026-04-18 19:17 33.76220 -118.17199 519 ft 88 kts 96°
2026-04-18 19:17 33.76369 -118.17075 410 ft 66 kts 251°
2026-04-18 19:18 33.76232 -118.17648 354 ft 73 kts 250°
2026-04-18 19:18 33.76125 -118.18165 548 ft 57 kts 264°
2026-04-18 19:18 33.76078 -118.18667 680 ft 60 kts 252°
2026-04-18 19:18 33.76032 -118.19127 836 ft 70 kts 278°
2026-04-18 19:19 33.76060 -118.19664 1027 ft 55 kts 252°
2026-04-18 19:19 33.75651 -118.19858 928 ft 83 kts 158°
2026-04-18 19:19 33.75697 -118.19282 843 ft 100 kts 15°
2026-04-18 19:19 33.76087 -118.19703 865 ft 70 kts 291°
2026-04-18 19:20 33.76498 -118.19811 910 ft 75 kts 50°
2026-04-18 19:20 33.76602 -118.19263 891 ft 87 kts 97°
2026-04-18 19:20 33.76539 -118.18517 807 ft 84 kts 133°
2026-04-18 19:20 33.76064 -118.18684 700 ft 80 kts 238°
2026-04-18 19:21 33.76063 -118.19349 686 ft 85 kts 284°
2026-04-18 19:21 33.76410 -118.19847 632 ft 92 kts 11°
2026-04-18 19:21 33.76622 -118.19206 536 ft 99 kts 101°
2026-04-18 19:21 33.76537 -118.18418 653 ft 81 kts 133°
2026-04-18 19:22 33.76127 -118.18705 697 ft 89 kts 252°
2026-04-18 19:22 33.76225 -118.19489 789 ft 99 kts 281°
2026-04-18 19:22 33.76606 -118.19627 792 ft 99 kts 99°
2026-04-18 19:22 33.76554 -118.18860 632 ft 110 kts 67°
2026-04-18 19:23 33.76254 -118.18439 628 ft 93 kts 213°
2026-04-18 19:23 33.76051 -118.19106 788 ft 92 kts 283°
2026-04-18 19:23 33.76275 -118.19894 761 ft 103 kts 319°
2026-04-18 19:23 33.76681 -118.19361 679 ft 110 kts 92°
2026-04-18 19:24 33.76526 -118.18408 576 ft 117 kts 112°
2026-04-18 19:24 33.76222 -118.17502 542 ft 115 kts 113°
2026-04-18 19:24 33.75918 -118.16636 562 ft 112 kts 121°
2026-04-18 19:24 33.75560 -118.15807 548 ft 113 kts 133°
2026-04-18 19:25 33.74867 -118.15758 291 ft 118 kts 224°
2026-04-18 19:25 33.74587 -118.16703 61 ft 123 kts 276°
2026-04-18 19:25 33.74957 -118.17580 90 ft 107 kts 313°
2026-04-18 19:25 33.75435 -118.18086 508 ft 82 kts 320°
2026-04-18 19:26 33.75861 -118.18520 764 ft 81 kts 323°
2026-04-18 19:26 33.76334 -118.18935 892 ft 92 kts 312°
2026-04-18 19:26 33.76508 -118.19740 842 ft 101 kts 274°
2026-04-18 19:26 33.76613 -118.20584 844 ft 101 kts 276°
2026-04-18 19:27 33.76731 -118.21428 871 ft 105 kts 276°
2026-04-18 19:27 33.76852 -118.22320 860 ft 110 kts 276°
2026-04-18 19:27 33.76966 -118.23227 852 ft 110 kts 276°
2026-04-18 19:27 33.77074 -118.24149 863 ft 112 kts 274°
2026-04-18 19:28 33.77172 -118.25063 870 ft 110 kts 276°
2026-04-18 19:28 33.77264 -118.25979 871 ft 111 kts 275°
2026-04-18 19:28 33.77349 -118.26899 872 ft 110 kts 274°
2026-04-18 19:28 33.77507 -118.27798 868 ft 110 kts 284°
2026-04-18 19:29 33.77729 -118.28676 866 ft 109 kts 283°
2026-04-18 19:29 33.77947 -118.29551 874 ft 109 kts 285°
2026-04-18 19:29 33.78210 -118.30410 873 ft 110 kts 292°
2026-04-18 19:29 33.78561 -118.31167 835 ft 89 kts 298°
2026-04-18 19:30 33.78834 -118.31618 886 ft 54 kts 311°
2026-04-18 19:30 33.79009 -118.31863 952 ft 55 kts 323°
2026-04-18 19:30 33.79332 -118.32293 811 ft 78 kts 303°
2026-04-18 19:30 33.79766 -118.32900 388 ft 108 kts 308°
2026-04-18 19:31 33.80132 -118.33564 294 ft 81 kts 297°
2026-04-18 19:31 33.80251 -118.34149 150 ft 56 kts 276°
2026-04-18 19:31 33.80295 -118.34358 123 ft 3 kts 54°
2026-04-18 19:31 33.80298 -118.34351 106 ft 0 kts 47°